createdAt,value
2018-07-15T00:00:21.257Z,25.58
2018-07-15T00:02:52.173Z,25.49
2018-07-15T00:05:22.857Z,25.44
2018-07-15T00:07:53.646Z,25.44
2018-07-15T00:10:24.374Z,25.31
2018-07-15T00:12:55.219Z,25.48
2018-07-15T00:15:25.945Z,25.54
2018-07-15T00:17:56.629Z,25.36
2018-07-15T00:20:27.306Z,25.33
2018-07-15T00:22:58.095Z,25.38
2018-07-15T00:25:28.715Z,25.57
2018-07-15T00:27:58.997Z,25.30
2018-07-15T00:30:29.834Z,25.44
2018-07-15T00:33:00.778Z,25.50
2018-07-15T00:35:31.535Z,25.59
2018-07-15T00:38:02.606Z,25.44
2018-07-15T00:40:33.274Z,25.43
2018-07-15T00:43:04.095Z,25.32
2018-07-15T00:45:34.746Z,25.25
2018-07-15T00:48:05.430Z,25.33
2018-07-15T00:50:36.145Z,25.46
2018-07-15T00:53:06.953Z,25.37
2018-07-15T00:55:37.572Z,25.29
2018-07-15T00:58:08.682Z,25.09
2018-07-15T01:00:43.713Z,25.14
2018-07-15T01:03:14.541Z,25.18
2018-07-15T01:05:45.014Z,25.30
2018-07-15T01:08:15.762Z,25.20
2018-07-15T01:10:46.690Z,25.27
2018-07-15T01:13:17.562Z,25.48
2018-07-15T01:15:48.308Z,25.25
2018-07-15T01:18:19.179Z,25.25
2018-07-15T01:20:49.771Z,25.22
2018-07-15T01:23:20.603Z,25.25
2018-07-15T01:25:51.342Z,25.40
2018-07-15T01:28:22.221Z,25.36
2018-07-15T01:30:52.795Z,25.15
2018-07-15T01:33:23.388Z,24.95
2018-07-15T01:35:54.223Z,25.16
2018-07-15T01:38:24.998Z,25.20
2018-07-15T01:40:55.754Z,25.33
2018-07-15T01:43:26.527Z,25.20
2018-07-15T01:45:57.210Z,25.12
2018-07-15T01:48:27.941Z,25.17
2018-07-15T01:50:58.686Z,25.21
2018-07-15T01:53:29.576Z,25.04
2018-07-15T01:56:00.253Z,25.08
2018-07-15T01:58:31.032Z,25.31
2018-07-15T02:01:01.733Z,25.16
2018-07-15T02:03:32.608Z,25.22
2018-07-15T02:06:03.291Z,25.18
2018-07-15T02:08:34.155Z,25.03
2018-07-15T02:11:04.805Z,25.22
2018-07-15T02:13:35.477Z,25.06
2018-07-15T02:16:06.189Z,24.77
2018-07-15T02:18:37.110Z,24.81
2018-07-15T02:21:07.766Z,24.77
2018-07-15T02:23:38.662Z,24.51
2018-07-15T02:26:09.362Z,24.68
2018-07-15T02:28:40.101Z,24.82
2018-07-15T02:31:10.841Z,24.48
2018-07-15T02:33:41.537Z,24.77
2018-07-15T02:36:12.852Z,24.73
2018-07-15T02:38:43.490Z,24.85
2018-07-15T02:41:14.145Z,24.71
2018-07-15T02:43:44.717Z,24.80
2018-07-15T02:46:15.397Z,24.68
2018-07-15T02:48:46.067Z,24.40
2018-07-15T02:51:16.798Z,24.48
2018-07-15T02:53:47.866Z,24.46
2018-07-15T02:56:18.553Z,24.41
2018-07-15T02:58:49.754Z,24.38
2018-07-15T03:01:20.453Z,24.72
2018-07-15T03:03:52.149Z,24.61
2018-07-15T03:06:22.873Z,24.72
2018-07-15T03:08:53.812Z,24.79
2018-07-15T03:11:24.493Z,24.81
2018-07-15T03:13:55.241Z,24.58
2018-07-15T03:16:26.027Z,24.75
2018-07-15T03:18:57.071Z,24.84
2018-07-15T03:21:27.729Z,24.73
2018-07-15T03:23:58.050Z,24.60
2018-07-15T03:26:28.754Z,24.57
2018-07-15T03:28:59.588Z,24.74
2018-07-15T03:31:30.221Z,24.89
2018-07-15T03:34:01.208Z,25.02
2018-07-15T03:36:31.893Z,24.83
2018-07-15T03:39:02.494Z,24.89
2018-07-15T03:41:33.298Z,25.02
2018-07-15T03:44:04.326Z,24.92
2018-07-15T03:46:35.066Z,24.78
2018-07-15T03:49:05.813Z,25.17
2018-07-15T03:51:36.497Z,25.17
2018-07-15T03:54:07.230Z,25.25
2018-07-15T03:56:37.961Z,25.43
2018-07-15T03:59:08.910Z,25.52
2018-07-15T04:01:39.626Z,25.53
2018-07-15T04:04:10.393Z,25.61
2018-07-15T04:06:40.942Z,25.53
2018-07-15T04:09:11.855Z,25.58
2018-07-15T04:11:42.594Z,25.43
2018-07-15T04:14:13.369Z,25.46
2018-07-15T04:16:44.159Z,25.65
2018-07-15T04:19:15.277Z,25.63
2018-07-15T04:21:45.850Z,25.70
2018-07-15T04:24:16.637Z,25.87
2018-07-15T04:26:47.397Z,25.81
2018-07-15T04:29:18.290Z,25.73
2018-07-15T04:31:48.973Z,25.79
2018-07-15T04:34:19.826Z,25.86
2018-07-15T04:36:50.645Z,25.89
2018-07-15T04:39:21.410Z,26.03
2018-07-15T04:41:52.449Z,25.77
2018-07-15T04:44:23.221Z,26.01
2018-07-15T04:46:53.933Z,26.20
2018-07-15T04:49:25.022Z,26.56
2018-07-15T04:51:55.573Z,26.76
2018-07-15T04:54:26.338Z,26.76
2018-07-15T04:56:57.037Z,27.20
2018-07-15T04:59:27.813Z,27.46
2018-07-15T05:01:58.781Z,27.77
2018-07-15T05:04:29.477Z,28.17
2018-07-15T05:07:00.162Z,28.46
2018-07-15T05:09:30.897Z,28.65
2018-07-15T05:12:01.541Z,28.69
2018-07-15T05:14:32.413Z,29.00
2018-07-15T05:17:03.009Z,29.03
2018-07-15T05:19:33.673Z,29.12
2018-07-15T05:22:04.364Z,29.49
2018-07-15T05:24:35.426Z,29.25
2018-07-15T05:27:06.128Z,29.51
2018-07-15T05:29:36.982Z,29.70
2018-07-15T05:32:07.501Z,30.07
2018-07-15T05:34:38.276Z,29.63
2018-07-15T05:37:09.122Z,30.25
2018-07-15T05:39:40.313Z,30.36
2018-07-15T05:51:12.341Z,31.05
2018-07-15T05:53:43.018Z,31.75
2018-07-15T05:56:13.714Z,31.49
2018-07-15T05:58:44.381Z,31.63
2018-07-15T06:01:15.376Z,31.41
2018-07-15T06:03:46.003Z,31.40
2018-07-15T06:06:17.232Z,31.74
2018-07-15T06:08:50.947Z,31.80
2018-07-15T06:11:21.890Z,32.44
2018-07-15T06:13:52.573Z,32.97
2018-07-15T06:16:23.352Z,33.04
2018-07-15T06:18:54.249Z,33.47
2018-07-15T06:21:24.987Z,32.94
2018-07-15T06:23:55.721Z,32.86
2018-07-15T06:26:26.591Z,32.25
2018-07-15T06:28:57.162Z,31.75
2018-07-15T06:31:27.382Z,32.37
2018-07-15T06:33:57.764Z,31.64
2018-07-15T06:36:28.653Z,32.03
2018-07-15T06:38:59.353Z,32.03
2018-07-15T06:41:29.939Z,32.28
2018-07-15T06:44:00.578Z,32.90
2018-07-15T06:46:31.442Z,33.14
2018-07-15T06:49:02.265Z,33.21
2018-07-15T06:51:32.861Z,33.46
2018-07-15T06:54:03.609Z,33.22
2018-07-15T06:56:34.386Z,33.51
2018-07-15T06:59:05.013Z,33.51
2018-07-15T07:01:35.869Z,33.94
2018-07-15T07:04:06.888Z,34.21
2018-07-15T07:06:37.562Z,34.28
2018-07-15T07:09:09.049Z,34.23
2018-07-15T07:11:39.900Z,34.13
2018-07-15T07:14:10.474Z,34.39
2018-07-15T07:16:41.365Z,34.47
2018-07-15T07:19:12.102Z,34.32
2018-07-15T07:21:43.041Z,34.45
2018-07-15T07:24:13.654Z,34.32
2018-07-15T07:26:44.402Z,34.86
2018-07-15T07:29:15.096Z,34.46
2018-07-15T07:31:45.769Z,34.73
2018-07-15T07:34:16.304Z,35.01
2018-07-15T07:36:46.985Z,35.49
2018-07-15T07:39:17.829Z,35.42
2018-07-15T07:41:48.750Z,35.50
2018-07-15T07:44:19.439Z,35.56
2018-07-15T07:46:49.965Z,35.58
2018-07-15T07:49:20.594Z,35.86
2018-07-15T07:51:51.613Z,35.64
2018-07-15T07:54:22.269Z,36.06
2018-07-15T07:56:53.098Z,35.69
2018-07-15T07:59:23.736Z,35.63
2018-07-15T08:01:54.450Z,36.16
2018-07-15T08:04:25.154Z,36.56
2018-07-15T08:06:56.029Z,36.38
2018-07-15T08:09:26.672Z,36.62
2018-07-15T08:11:57.505Z,36.58
2018-07-15T08:14:28.657Z,36.88
2018-07-15T08:16:59.562Z,37.17
2018-07-15T08:19:30.137Z,37.14
2018-07-15T08:22:01.074Z,36.99
2018-07-15T08:24:31.610Z,37.55
2018-07-15T08:27:02.498Z,36.93
2018-07-15T08:29:33.084Z,36.61
2018-07-15T08:32:04.126Z,36.89
2018-07-15T08:34:34.252Z,37.36
2018-07-15T08:37:05.133Z,37.09
2018-07-15T08:39:35.781Z,37.08
2018-07-15T08:42:06.570Z,37.27
2018-07-15T08:44:37.358Z,37.17
2018-07-15T08:47:08.068Z,37.16
2018-07-15T08:49:38.716Z,37.84
2018-07-15T08:52:09.448Z,37.76
2018-07-15T08:54:40.113Z,38.04
2018-07-15T08:57:11.119Z,37.31
2018-07-15T08:59:41.876Z,37.14
2018-07-15T09:02:11.821Z,37.38
2018-07-15T09:04:44.919Z,38.15
2018-07-15T09:07:15.488Z,38.37
2018-07-15T09:09:46.207Z,38.77
2018-07-15T09:12:16.853Z,38.36
2018-07-15T09:14:47.510Z,38.67
2018-07-15T09:17:18.316Z,38.37
2018-07-15T09:19:49.059Z,38.96
2018-07-15T09:22:19.805Z,39.00
2018-07-15T09:24:50.640Z,38.64
2018-07-15T09:27:21.365Z,38.15
2018-07-15T09:29:52.232Z,37.28
2018-07-15T09:32:22.920Z,37.03
2018-07-15T09:34:53.633Z,36.60
2018-07-15T09:37:24.290Z,37.22
2018-07-15T09:39:54.873Z,38.00
2018-07-15T09:42:25.551Z,37.65
2018-07-15T09:44:56.338Z,38.10
2018-07-15T09:47:27.118Z,39.05
2018-07-15T09:49:57.970Z,39.06
2018-07-15T09:52:28.706Z,39.04
2018-07-15T09:54:58.921Z,38.73
2018-07-15T09:57:29.485Z,36.76
2018-07-15T10:00:00.473Z,37.89
2018-07-15T10:02:31.042Z,38.18
2018-07-15T10:05:01.986Z,37.87
2018-07-15T10:07:32.577Z,36.88
2018-07-15T10:10:03.230Z,36.35
2018-07-15T10:12:33.946Z,35.83
2018-07-15T10:15:04.778Z,36.09
2018-07-15T10:17:35.700Z,37.76
2018-07-15T10:20:06.354Z,37.06
2018-07-15T10:22:36.852Z,37.91
2018-07-15T10:25:07.886Z,38.50
2018-07-15T10:27:38.474Z,39.21
2018-07-15T10:30:09.279Z,40.70
2018-07-15T10:32:39.922Z,41.31
2018-07-15T10:35:10.722Z,40.97
2018-07-15T10:37:41.386Z,41.32
2018-07-15T10:40:12.493Z,40.04
2018-07-15T10:42:43.081Z,39.75
2018-07-15T10:45:14.342Z,39.98
2018-07-15T10:47:44.917Z,40.50
2018-07-15T10:50:15.737Z,39.31
2018-07-15T10:52:46.405Z,37.80
2018-07-15T10:55:17.285Z,37.49
2018-07-15T10:57:48.026Z,37.63
2018-07-15T11:00:18.857Z,38.66
2018-07-15T11:02:49.569Z,39.74
2018-07-15T11:05:20.921Z,39.06
2018-07-15T11:07:51.598Z,40.30
2018-07-15T11:10:22.225Z,41.30
2018-07-15T11:12:52.883Z,41.13
2018-07-15T11:15:23.675Z,40.59
2018-07-15T11:17:54.247Z,40.03
2018-07-15T11:20:25.116Z,39.43
2018-07-15T11:22:55.481Z,38.43
2018-07-15T11:25:26.240Z,39.44
2018-07-15T11:27:57.176Z,39.74
2018-07-15T11:30:28.145Z,39.52
2018-07-15T11:32:58.300Z,38.55
2018-07-15T11:35:28.801Z,39.40
2018-07-15T11:37:59.649Z,39.39
2018-07-15T11:40:30.257Z,39.89
2018-07-15T11:43:01.168Z,40.48
2018-07-15T11:45:32.026Z,39.64
2018-07-15T11:48:02.412Z,38.86
2018-07-15T11:50:33.062Z,38.72
2018-07-15T11:53:05.192Z,38.34
2018-07-15T11:55:35.913Z,38.58
2018-07-15T11:58:06.705Z,37.86
2018-07-15T12:00:37.327Z,37.01
2018-07-15T12:03:08.176Z,37.37
2018-07-15T12:05:38.297Z,37.30
2018-07-15T12:08:09.428Z,37.04
2018-07-15T12:10:40.214Z,37.18
2018-07-15T12:13:11.105Z,37.18
2018-07-15T12:15:41.886Z,37.58
2018-07-15T12:18:13.044Z,37.77
2018-07-15T12:20:43.625Z,38.47
2018-07-15T12:23:14.766Z,39.65
2018-07-15T12:25:45.417Z,39.51
2018-07-15T12:28:16.128Z,38.53
2018-07-15T12:30:46.916Z,39.28
2018-07-15T12:33:17.633Z,38.55
2018-07-15T12:35:48.386Z,37.91
2018-07-15T12:38:19.259Z,39.01
2018-07-15T12:40:49.905Z,38.77
2018-07-15T12:43:20.113Z,39.98
2018-07-15T12:45:50.836Z,40.15
2018-07-15T12:48:21.680Z,38.77
2018-07-15T12:50:52.310Z,37.78
2018-07-15T12:53:24.198Z,37.64
2018-07-15T12:55:55.054Z,38.07
2018-07-15T12:58:25.942Z,37.61
2018-07-15T13:00:56.675Z,38.67
2018-07-15T13:03:27.582Z,38.43
2018-07-15T13:05:58.258Z,38.82
2018-07-15T13:08:29.089Z,38.92
2018-07-15T13:10:59.867Z,39.73
2018-07-15T13:13:30.910Z,39.76
2018-07-15T13:16:01.559Z,39.46
2018-07-15T13:18:32.705Z,38.60
2018-07-15T13:21:03.369Z,38.08
2018-07-15T13:23:34.114Z,37.48
2018-07-15T13:26:04.905Z,38.85
2018-07-15T13:28:35.626Z,40.21
2018-07-15T13:31:06.394Z,39.41
2018-07-15T13:33:37.107Z,38.16
2018-07-15T13:36:07.958Z,37.68
2018-07-15T13:38:38.746Z,38.39
2018-07-15T13:41:09.502Z,38.13
2018-07-15T13:43:40.201Z,38.67
2018-07-15T13:46:10.821Z,38.16
2018-07-15T13:48:41.594Z,37.82
2018-07-15T13:51:12.166Z,37.43
2018-07-15T13:53:43.095Z,36.88
2018-07-15T13:56:13.836Z,36.35
2018-07-15T13:58:44.698Z,37.12
2018-07-15T14:01:15.298Z,37.87
2018-07-15T14:03:46.335Z,37.68
2018-07-15T14:06:17.018Z,37.15
2018-07-15T14:08:47.962Z,36.97
2018-07-15T14:11:18.639Z,37.59
2018-07-15T14:13:49.480Z,36.85
2018-07-15T14:16:20.138Z,37.14
2018-07-15T14:18:50.957Z,38.06
2018-07-15T14:21:21.748Z,37.71
2018-07-15T14:23:52.655Z,38.17
2018-07-15T14:26:23.250Z,38.76
2018-07-15T14:28:53.945Z,37.45
2018-07-15T14:31:24.582Z,37.57
2018-07-15T14:33:55.551Z,38.51
2018-07-15T14:36:26.286Z,39.11
2018-07-15T14:38:57.157Z,39.33
2018-07-15T14:41:27.778Z,39.65
2018-07-15T14:43:58.849Z,39.74
2018-07-15T14:46:29.457Z,39.79
2018-07-15T14:49:00.217Z,39.75
2018-07-15T14:51:30.890Z,39.82
2018-07-15T14:54:01.721Z,39.66
2018-07-15T14:56:32.363Z,39.85
2018-07-15T14:59:03.327Z,39.70
2018-07-15T15:01:33.821Z,38.93
2018-07-15T15:04:04.546Z,39.07
2018-07-15T15:06:35.242Z,38.96
2018-07-15T15:09:07.099Z,39.20
2018-07-15T15:11:37.793Z,39.50
2018-07-15T15:14:07.790Z,39.22
2018-07-15T15:16:38.353Z,38.78
2018-07-15T15:19:09.478Z,38.95
2018-07-15T15:21:40.139Z,39.52
2018-07-15T15:24:10.800Z,39.69
2018-07-15T15:26:41.393Z,38.99
2018-07-15T15:29:12.034Z,39.29
2018-07-15T15:31:42.727Z,39.34
2018-07-15T15:34:13.546Z,39.05
2018-07-15T15:36:44.117Z,38.50
2018-07-15T15:39:14.863Z,38.92
2018-07-15T15:41:45.541Z,39.04
2018-07-15T15:44:16.158Z,38.98
2018-07-15T15:46:46.883Z,39.02
2018-07-15T15:49:17.600Z,38.72
2018-07-15T15:51:48.614Z,38.24
2018-07-15T15:54:19.411Z,38.34
2018-07-15T15:56:50.057Z,38.28
2018-07-15T15:59:20.937Z,38.19
2018-07-15T16:01:51.633Z,38.20
2018-07-15T16:04:22.576Z,37.94
2018-07-15T16:06:53.460Z,37.88
2018-07-15T16:09:24.391Z,37.12
2018-07-15T16:11:55.434Z,36.47
2018-07-15T16:14:26.258Z,36.20
2018-07-15T16:16:56.926Z,35.80
2018-07-15T16:19:27.754Z,36.03
2018-07-15T16:21:58.374Z,36.40
2018-07-15T16:24:29.158Z,36.95
2018-07-15T16:26:59.954Z,37.01
2018-07-15T16:29:30.914Z,36.85
2018-07-15T16:32:01.690Z,36.95
2018-07-15T16:34:31.852Z,36.68
2018-07-15T16:37:02.658Z,36.38
2018-07-15T16:39:33.444Z,36.33
2018-07-15T16:42:04.231Z,36.20
2018-07-15T16:44:34.962Z,36.23
2018-07-15T16:47:05.645Z,36.09
2018-07-15T16:49:36.538Z,36.19
2018-07-15T16:52:07.243Z,35.89
2018-07-15T16:54:37.645Z,35.64
2018-07-15T16:57:08.410Z,35.56
2018-07-15T16:59:39.189Z,35.33
2018-07-15T17:02:09.847Z,35.30
2018-07-15T17:04:40.781Z,35.28
2018-07-15T17:07:11.426Z,35.30
2018-07-15T17:09:42.356Z,35.15
2018-07-15T17:12:13.257Z,34.91
2018-07-15T17:14:44.129Z,34.73
2018-07-15T17:17:14.865Z,34.57
2018-07-15T17:19:45.699Z,34.34
2018-07-15T17:22:16.329Z,34.01
2018-07-15T17:24:47.211Z,33.89
2018-07-15T17:27:17.902Z,33.72
2018-07-15T17:29:48.875Z,33.38
2018-07-15T17:32:19.667Z,33.36
2018-07-15T17:34:50.317Z,33.17
2018-07-15T17:37:20.925Z,33.05
2018-07-15T17:39:51.742Z,32.85
2018-07-15T17:42:22.430Z,32.66
2018-07-15T17:44:53.330Z,32.43
2018-07-15T17:47:23.972Z,32.25
2018-07-15T17:49:54.654Z,32.06
2018-07-15T17:52:25.389Z,32.14
2018-07-15T17:54:56.122Z,32.22
2018-07-15T17:57:26.805Z,32.08
2018-07-15T17:59:57.642Z,32.00
2018-07-15T18:02:28.477Z,31.86
2018-07-15T18:04:59.620Z,31.87
2018-07-15T18:07:30.146Z,31.86
2018-07-15T18:10:00.937Z,31.80
2018-07-15T18:12:31.614Z,31.80
2018-07-15T18:15:02.314Z,31.59
2018-07-15T18:17:32.919Z,31.45
2018-07-15T18:20:04.048Z,31.34
2018-07-15T18:22:34.309Z,31.17
2018-07-15T18:25:05.071Z,30.80
2018-07-15T18:27:35.710Z,30.54
2018-07-15T18:30:06.735Z,30.38
2018-07-15T18:32:37.270Z,30.20
2018-07-15T18:35:08.052Z,30.09
2018-07-15T18:37:38.942Z,30.07
2018-07-15T18:40:09.889Z,30.13
2018-07-15T18:42:40.515Z,30.32
2018-07-15T18:45:11.191Z,30.37
2018-07-15T18:47:41.894Z,29.78
2018-07-15T18:50:12.686Z,29.70
2018-07-15T18:52:43.345Z,29.65
2018-07-15T18:55:14.370Z,29.65
2018-07-15T18:57:45.022Z,29.48
2018-07-15T19:00:15.585Z,29.41
2018-07-15T19:02:46.287Z,29.43
2018-07-15T19:05:17.100Z,29.32
2018-07-15T19:07:47.797Z,29.20
2018-07-15T19:10:18.676Z,29.17
2018-07-15T19:12:49.374Z,29.15
2018-07-15T19:15:20.103Z,29.22
2018-07-15T19:17:50.794Z,29.24
2018-07-15T19:20:21.805Z,29.26
2018-07-15T19:22:52.451Z,29.25
2018-07-15T19:25:23.269Z,29.20
2018-07-15T19:27:53.827Z,29.19
2018-07-15T19:30:24.738Z,29.15
2018-07-15T19:32:55.485Z,28.94
2018-07-15T19:35:26.285Z,28.79
2018-07-15T19:37:56.957Z,28.55
2018-07-15T19:40:27.827Z,28.52
2018-07-15T19:43:00.814Z,28.58
2018-07-15T19:45:31.665Z,28.67
2018-07-15T19:48:02.344Z,28.73
2018-07-15T19:50:33.006Z,28.29
2018-07-15T19:53:03.717Z,28.54
2018-07-15T19:55:34.506Z,28.77
2018-07-15T19:58:05.237Z,28.80
2018-07-15T20:00:35.958Z,28.78
2018-07-15T20:03:06.661Z,28.90
2018-07-15T20:05:37.429Z,29.02
2018-07-15T20:08:08.253Z,28.97
2018-07-15T20:10:38.989Z,28.81
2018-07-15T20:13:09.698Z,28.88
2018-07-15T20:15:40.569Z,29.03
2018-07-15T20:18:11.169Z,29.00
2018-07-15T20:20:42.059Z,28.89
2018-07-15T20:23:12.623Z,28.80
2018-07-15T20:25:43.510Z,28.74
2018-07-15T20:28:14.182Z,28.68
2018-07-15T20:30:44.870Z,28.61
2018-07-15T20:33:15.731Z,28.50
2018-07-15T20:35:46.502Z,28.58
2018-07-15T20:38:17.225Z,28.47
2018-07-15T20:40:48.113Z,28.45
2018-07-15T20:43:18.805Z,28.43
2018-07-15T20:45:49.593Z,28.40
2018-07-15T20:48:20.305Z,28.37
2018-07-15T20:50:50.951Z,28.29
2018-07-15T20:53:21.674Z,28.35
2018-07-15T20:55:52.499Z,28.24
2018-07-15T20:58:23.196Z,28.24
2018-07-15T21:00:53.901Z,28.30
2018-07-15T21:03:24.562Z,28.20
2018-07-15T21:05:55.387Z,27.79
2018-07-15T21:08:26.024Z,27.72
2018-07-15T21:10:56.981Z,27.58
2018-07-15T21:13:27.694Z,27.71
2018-07-15T21:15:58.527Z,27.56
2018-07-15T21:18:29.077Z,27.53
2018-07-15T21:20:59.991Z,27.49
2018-07-15T21:23:30.629Z,27.70
2018-07-15T21:26:01.772Z,27.69
2018-07-15T21:28:32.565Z,27.67
2018-07-15T21:31:03.462Z,27.56
2018-07-15T21:33:34.075Z,27.62
2018-07-15T21:36:04.826Z,27.75
2018-07-15T21:38:35.622Z,27.75
2018-07-15T21:41:06.314Z,27.71
2018-07-15T21:43:36.369Z,27.68
2018-07-15T21:46:07.427Z,27.74
2018-07-15T21:48:38.210Z,27.75
2018-07-15T21:51:10.005Z,27.77
2018-07-15T21:53:41.241Z,27.62
2018-07-15T21:56:12.062Z,27.59
2018-07-15T21:58:42.766Z,27.63
2018-07-15T22:01:13.710Z,27.61
2018-07-15T22:03:44.463Z,27.46
2018-07-15T22:06:31.153Z,27.50
2018-07-15T22:09:17.962Z,27.57
2018-07-15T22:11:48.794Z,27.60
2018-07-15T22:14:19.512Z,27.38
2018-07-15T22:16:50.446Z,27.50
2018-07-15T22:19:21.242Z,27.66
2018-07-15T22:21:52.048Z,27.62
2018-07-15T22:24:22.737Z,27.49
2018-07-15T22:26:53.572Z,27.38
2018-07-15T22:29:24.203Z,27.43
2018-07-15T22:31:55.898Z,27.35
2018-07-15T22:34:26.486Z,27.54
2018-07-15T22:36:57.322Z,27.49
2018-07-15T22:39:28.059Z,27.54
2018-07-15T22:41:58.993Z,27.41
2018-07-15T22:44:29.646Z,27.42
2018-07-15T22:47:02.202Z,27.38
2018-07-15T22:49:32.891Z,27.54
2018-07-15T22:52:03.856Z,27.36
2018-07-15T22:54:34.506Z,27.30
2018-07-15T22:57:05.278Z,27.24
2018-07-15T22:59:35.977Z,27.33
2018-07-15T23:02:06.650Z,27.49
2018-07-15T23:05:53.930Z,27.57
2018-07-15T23:08:25.730Z,27.66
2018-07-15T23:10:56.403Z,27.49
2018-07-15T23:13:27.261Z,27.63
2018-07-15T23:15:57.909Z,27.66
2018-07-15T23:18:28.794Z,27.68
2018-07-15T23:20:59.393Z,27.69
2018-07-15T23:23:30.298Z,27.54
2018-07-15T23:26:00.933Z,27.60
2018-07-15T23:28:31.698Z,27.69
2018-07-15T23:31:01.705Z,27.72
2018-07-15T23:33:32.621Z,27.70
2018-07-15T23:36:03.206Z,27.78
2018-07-15T23:38:34.121Z,27.88
2018-07-15T23:41:04.212Z,27.75
2018-07-15T23:43:34.773Z,27.51
2018-07-15T23:46:05.460Z,27.64
2018-07-15T23:48:36.121Z,27.59
2018-07-15T23:51:07.082Z,27.58
2018-07-15T23:53:37.775Z,27.57
2018-07-15T23:56:08.885Z,27.75
2018-07-15T23:58:39.542Z,27.75
